Time;durP1;ratioP1;P1;durP2;ratioP2;P2;SDS_P1;SDS_P2;PMS_P1;PMS_P2;Temp;Humidity;BMP_temperature;BMP_pressure;BME280_temperature;BME280_humidity;BME280_pressure;Samples;Min_cycle;Max_cycle;Signal;HPM_P1;HPM_P2
2022/06/08 00:00:17;;;;;;;;;3.50;2.00;;;;;20.27;46.43;100637.38;4948304;28;45398;-51
2022/06/08 00:02:45;;;;;;;;;5.75;3.00;;;;;20.25;45.80;100637.47;4951829;28;45272;-46
2022/06/08 00:05:12;;;;;;;;;5.50;1.50;;;;;20.17;45.94;100621.00;4951283;28;45180;-49
2022/06/08 00:07:37;;;;;;;;;4.00;2.00;;;;;20.23;46.44;100631.34;4951332;28;45409;-48
2022/06/08 00:10:04;;;;;;;;;4.00;2.00;;;;;20.23;46.41;100623.34;4951348;28;45303;-51
2022/06/08 00:12:30;;;;;;;;;4.00;2.25;;;;;20.23;46.52;100619.81;4949824;28;45417;-47
2022/06/08 00:14:56;;;;;;;;;1.00;1.00;;;;;20.22;46.51;100615.44;4949911;28;45326;-49
2022/06/08 00:17:21;;;;;;;;;5.25;2.75;;;;;20.21;46.08;100603.03;4950159;28;46076;-47
2022/06/08 00:19:47;;;;;;;;;2.00;2.00;;;;;20.19;46.36;100608.47;4951450;28;45421;-47
2022/06/08 00:22:12;;;;;;;;;2.00;2.00;;;;;20.19;46.50;100596.91;4948873;28;45276;-50
2022/06/08 00:24:38;;;;;;;;;2.50;2.00;;;;;20.17;46.54;100591.66;4950794;28;45347;-51
2022/06/08 00:27:04;;;;;;;;;2.00;2.00;;;;;20.17;46.14;100597.00;4949914;28;46033;-50
2022/06/08 00:29:30;;;;;;;;;2.75;1.50;;;;;20.14;46.62;100591.84;4950689;28;45378;-48
2022/06/08 00:31:55;;;;;;;;;3.00;3.00;;;;;20.14;46.35;100592.69;4940235;28;45368;-51
2022/06/08 00:34:21;;;;;;;;;2.25;2.00;;;;;20.13;46.37;100584.78;4948857;28;45377;-47
2022/06/08 00:36:46;;;;;;;;;3.00;3.00;;;;;20.12;46.36;100585.75;4951409;28;45516;-48
2022/06/08 00:39:11;;;;;;;;;3.25;2.25;;;;;20.11;46.44;100587.56;4946448;28;45356;-47
2022/06/08 00:41:47;;;;;;;;;3.50;2.50;;;;;20.09;46.37;100581.44;4951128;28;45409;-47
2022/06/08 00:44:24;;;;;;;;;2.50;2.25;;;;;20.06;46.91;100581.63;4950085;28;45164;-48
2022/06/08 00:46:52;;;;;;;;;1.50;1.50;;;;;20.02;47.04;100566.72;4949792;28;45436;-48
2022/06/08 00:49:23;;;;;;;;;5.00;4.00;;;;;20.04;46.64;100564.00;4954152;28;45482;-46
2022/06/08 00:51:49;;;;;;;;;1.00;1.00;;;;;20.01;47.23;100558.81;4940695;28;45351;-46
2022/06/08 00:54:28;;;;;;;;;2.00;2.00;;;;;20.01;47.18;100558.81;4952951;28;45525;-47
2022/06/08 00:57:02;;;;;;;;;3.00;2.00;;;;;19.97;46.74;100548.34;4947868;28;46238;-48
2022/06/08 00:59:28;;;;;;;;;4.00;4.00;;;;;19.96;46.80;100559.06;4950496;28;45357;-46
2022/06/08 01:01:53;;;;;;;;;5.25;3.00;;;;;19.94;46.90;100556.50;4949008;28;45346;-47
2022/06/08 01:04:19;;;;;;;;;2.75;2.75;;;;;19.94;47.31;100563.66;4950625;28;45350;-47
2022/06/08 01:06:55;;;;;;;;;2.75;1.25;;;;;19.89;47.00;100550.56;4949079;28;46243;-45
2022/06/08 01:09:34;;;;;;;;;3.50;2.75;;;;;19.89;47.21;100550.56;4947753;28;45309;-46
2022/06/08 01:12:03;;;;;;;;;2.75;2.75;;;;;19.88;47.57;100558.66;4952096;28;45445;-47
2022/06/08 01:14:29;;;;;;;;;4.25;3.25;;;;;19.85;47.42;100557.03;4946886;28;45454;-48
2022/06/08 01:17:04;;;;;;;;;4.25;3.00;;;;;19.85;47.28;100554.34;4951415;28;46894;-46
2022/06/08 01:19:32;;;;;;;;;3.00;2.00;;;;;19.84;47.25;100552.63;4947188;28;45352;-46
2022/06/08 01:22:00;;;;;;;;;5.25;3.25;;;;;19.84;47.62;100546.44;4951019;28;46483;-47
2022/06/08 01:24:27;;;;;;;;;5.25;4.00;;;;;19.83;47.36;100550.06;4947871;28;45445;-48
2022/06/08 01:27:12;;;;;;;;;2.75;1.50;;;;;19.82;47.83;100546.47;4949981;28;47373;-47
2022/06/08 01:29:54;;;;;;;;;3.25;2.00;;;;;19.80;47.52;100553.72;4950837;28;45250;-48
2022/06/08 01:32:28;;;;;;;;;2.75;2.00;;;;;19.79;47.76;100549.34;4937047;28;45457;-46
2022/06/08 01:35:02;;;;;;;;;5.50;2.50;;;;;19.78;47.60;100535.13;4949825;28;45594;-46
2022/06/08 01:37:54;;;;;;;;;3.75;3.75;;;;;19.76;47.79;100539.69;4945092;28;45974;-47
2022/06/08 01:40:46;;;;;;;;;2.50;2.50;;;;;19.74;47.63;100543.41;4943624;28;45248;-46
2022/06/08 01:43:11;;;;;;;;;5.00;4.50;;;;;19.72;48.15;100543.50;4932949;28;46450;-49
2022/06/08 01:46:14;;;;;;;;;4.75;3.00;;;;;19.70;48.20;100540.03;4937182;28;45531;-49
2022/06/08 01:48:45;;;;;;;;;8.00;2.75;;;;;19.65;48.15;100526.97;4937843;28;48410;-49
2022/06/08 01:51:18;;;;;;;;;5.00;4.00;;;;;19.67;48.30;100545.53;4939876;28;45562;-52
2022/06/08 01:54:19;;;;;;;;;3.25;3.25;;;;;19.65;48.50;100558.09;4938037;28;46309;-48
2022/06/08 01:57:08;;;;;;;;;4.75;3.00;;;;;19.62;48.21;100564.47;4939086;28;45502;-47
2022/06/08 01:59:42;;;;;;;;;4.75;3.00;;;;;19.60;48.46;100560.16;4936157;28;45620;-45
2022/06/08 02:02:36;;;;;;;;;3.00;2.25;;;;;19.57;48.08;100547.88;4943593;28;45612;-50
2022/06/08 02:05:08;;;;;;;;;5.75;3.00;;;;;19.58;48.26;100546.03;4936538;28;45521;-49
2022/06/08 02:07:40;;;;;;;;;5.75;2.25;;;;;19.54;48.21;100545.34;4937571;28;45322;-50
2022/06/08 02:10:23;;;;;;;;;5.25;4.00;;;;;19.45;48.45;100546.72;4942458;28;46337;-47
2022/06/08 02:12:54;;;;;;;;;4.75;3.50;;;;;19.43;48.95;100539.75;4939001;28;46510;-48
2022/06/08 02:15:27;;;;;;;;;5.75;4.75;;;;;19.40;48.52;100531.94;4945701;28;45335;-51
2022/06/08 02:17:56;;;;;;;;;5.00;3.25;;;;;19.33;48.75;100532.28;4944815;28;45427;-50
2022/06/08 02:20:27;;;;;;;;;2.75;2.00;;;;;19.33;48.81;100528.72;4946333;28;45505;-49
2022/06/08 02:23:01;;;;;;;;;5.00;2.00;;;;;19.28;48.81;100534.31;4947021;28;45358;-48
2022/06/08 02:25:33;;;;;;;;;2.25;2.25;;;;;19.27;48.95;100526.38;4946873;28;45331;-47
2022/06/08 02:28:23;;;;;;;;;3.25;2.75;;;;;19.25;48.62;100534.47;4945861;28;45384;-49
2022/06/08 02:30:53;;;;;;;;;2.75;2.50;;;;;19.22;48.92;100536.44;4931440;28;45416;-47
2022/06/08 02:36:18;;;;;;;;;3.75;3.75;;;;;19.07;49.46;100538.13;4941391;28;45235;-50
2022/06/08 02:38:50;;;;;;;;;3.75;2.50;;;;;18.94;49.83;100537.91;4940830;28;45506;-50
2022/06/08 02:41:18;;;;;;;;;3.00;3.00;;;;;18.94;49.90;100540.56;4940755;28;47754;-47
2022/06/08 02:43:49;;;;;;;;;4.00;4.00;;;;;18.93;49.45;100536.19;4928255;28;45462;-51
2022/06/08 02:46:53;;;;;;;;;3.75;2.75;;;;;18.88;49.88;100532.88;4939894;28;45413;-46
2022/06/08 02:49:18;;;;;;;;;4.50;2.25;;;;;18.80;50.10;100530.59;4900501;29;45264;-52
2022/06/08 02:51:48;;;;;;;;;3.50;3.00;;;;;18.75;50.12;100536.16;4932178;28;46372;-48
2022/06/08 02:54:26;;;;;;;;;3.50;1.50;;;;;18.69;50.19;100525.81;4941036;28;45307;-48
2022/06/08 02:56:56;;;;;;;;;5.50;5.00;;;;;18.66;50.19;100512.69;4939531;28;45451;-51
2022/06/08 02:59:31;;;;;;;;;4.75;3.25;;;;;18.64;50.29;100510.13;4941069;28;45163;-49
2022/06/08 03:02:02;;;;;;;;;6.00;4.25;;;;;18.62;50.48;100511.16;4940686;28;45224;-48
2022/06/08 03:04:56;;;;;;;;;3.25;2.25;;;;;18.59;50.29;100505.97;4939436;28;45471;-51
2022/06/08 03:07:29;;;;;;;;;6.25;4.00;;;;;18.58;50.67;100498.91;4933567;28;45326;-50
2022/06/08 03:09:58;;;;;;;;;4.00;4.00;;;;;18.55;50.79;100501.75;4940580;28;45406;-50
2022/06/08 03:12:30;;;;;;;;;3.00;3.00;;;;;18.54;50.74;100497.34;4940578;28;46311;-46
2022/06/08 03:14:56;;;;;;;;;3.50;2.00;;;;;18.48;50.90;100488.75;4940653;28;45335;-48
2022/06/08 03:17:27;;;;;;;;;4.75;3.00;;;;;18.46;50.60;100477.31;4940599;28;45323;-52
2022/06/08 03:19:53;;;;;;;;;3.75;3.50;;;;;18.49;50.62;100479.00;4940861;28;45413;-47
2022/06/08 03:22:19;;;;;;;;;3.50;3.00;;;;;18.48;50.79;100471.94;4943028;28;45398;-51
2022/06/08 03:24:45;;;;;;;;;5.00;3.50;;;;;18.48;50.59;100469.28;4943825;28;45389;-48
2022/06/08 03:27:11;;;;;;;;;4.25;3.75;;;;;18.45;50.69;100464.97;4943951;28;45452;-48
2022/06/08 03:29:37;;;;;;;;;4.50;3.25;;;;;18.45;50.82;100459.66;4943978;28;45505;-52
2022/06/08 03:32:03;;;;;;;;;3.75;2.00;;;;;18.45;51.04;100456.13;4935562;28;45472;-49
2022/06/08 03:34:29;;;;;;;;;5.75;3.00;;;;;18.40;51.45;100440.44;4943994;28;45300;-51
2022/06/08 03:36:55;;;;;;;;;4.25;2.75;;;;;18.41;51.04;100436.78;4943701;28;45171;-49
2022/06/08 03:39:21;;;;;;;;;4.00;3.00;;;;;18.40;51.09;100443.09;4943312;28;45481;-51
2022/06/08 03:41:46;;;;;;;;;4.50;4.50;;;;;18.39;51.24;100435.16;4941955;28;48140;-51
2022/06/08 03:44:12;;;;;;;;;3.00;3.00;;;;;18.38;51.52;100430.78;4943803;28;45220;-50
2022/06/08 03:46:47;;;;;;;;;4.00;3.00;;;;;18.35;51.28;100437.13;4943630;28;45244;-50
2022/06/08 03:49:13;;;;;;;;;4.75;4.50;;;;;18.34;51.40;100432.75;4943629;28;45255;-50
2022/06/08 03:51:41;;;;;;;;;8.00;5.25;;;;;18.33;51.57;100436.34;4943426;28;45956;-47
2022/06/08 03:54:16;;;;;;;;;3.00;2.00;;;;;18.30;51.69;100423.19;4942457;28;45987;-47
2022/06/08 03:56:43;;;;;;;;;6.75;4.75;;;;;18.29;51.57;100426.81;4930892;28;45416;-51
2022/06/08 03:59:09;;;;;;;;;5.25;3.00;;;;;18.26;51.67;100426.97;4943312;28;45521;-50
2022/06/08 04:01:34;;;;;;;;;6.25;5.00;;;;;18.26;51.79;100435.78;4943090;28;46172;-47
2022/06/08 04:04:00;;;;;;;;;5.00;4.75;;;;;18.25;52.01;100425.22;4943404;28;45247;-49
2022/06/08 04:06:25;;;;;;;;;3.00;3.00;;;;;18.19;51.67;100419.28;4943553;28;45416;-49
2022/06/08 04:08:51;;;;;;;;;3.75;3.00;;;;;18.24;52.05;100423.50;4943387;28;45192;-49
2022/06/08 04:11:17;;;;;;;;;3.75;2.00;;;;;18.19;51.94;100424.59;4943072;28;46009;-48
2022/06/08 04:13:43;;;;;;;;;4.75;4.00;;;;;18.20;52.23;100433.47;4941917;28;45382;-52
2022/06/08 04:16:09;;;;;;;;;3.00;3.00;;;;;18.18;52.47;100424.69;4943333;28;45350;-51
2022/06/08 04:18:35;;;;;;;;;4.25;3.00;;;;;18.18;52.38;100422.88;4942959;28;45574;-50
2022/06/08 04:21:03;;;;;;;;;4.00;3.50;;;;;18.17;52.32;100422.97;4943160;28;45340;-50
2022/06/08 04:23:31;;;;;;;;;2.50;1.25;;;;;18.08;52.49;100405.69;4943018;28;45343;-47
2022/06/08 04:25:57;;;;;;;;;3.75;3.25;;;;;18.13;52.57;100411.63;4943080;28;45241;-50
2022/06/08 04:28:23;;;;;;;;;5.00;4.00;;;;;18.13;52.35;100424.91;4942904;28;45422;-48
2022/06/08 04:30:49;;;;;;;;;4.50;4.25;;;;;18.11;52.66;100408.22;4936069;28;46625;-50
2022/06/08 04:33:15;;;;;;;;;5.00;4.00;;;;;18.09;52.48;100410.06;4940313;28;45771;-48
2022/06/08 04:35:41;;;;;;;;;6.00;4.75;;;;;18.09;52.66;100419.84;4943356;28;45320;-50
2022/06/08 04:38:07;;;;;;;;;4.25;4.25;;;;;18.05;52.91;100403.19;4942834;28;45465;-52
2022/06/08 04:40:34;;;;;;;;;5.00;4.25;;;;;18.01;52.98;100398.94;4942454;28;46124;-52
2022/06/08 04:42:59;;;;;;;;;3.75;2.50;;;;;17.99;52.84;100395.53;4942865;28;45239;-52
2022/06/08 04:45:27;;;;;;;;;4.50;3.25;;;;;18.00;52.99;100394.59;4942984;28;45360;-52
2022/06/08 04:47:52;;;;;;;;;5.00;3.25;;;;;17.98;52.84;100396.47;4942576;28;45525;-52
2022/06/08 04:50:18;;;;;;;;;3.00;3.00;;;;;17.95;53.16;100401.91;4942411;28;45394;-51
2022/06/08 04:52:44;;;;;;;;;4.25;3.00;;;;;17.91;53.27;100395.00;4942594;28;45379;-49
2022/06/08 04:55:12;;;;;;;;;3.75;2.50;;;;;17.85;53.11;100375.78;4942721;28;45416;-49
2022/06/08 04:57:38;;;;;;;;;4.00;3.00;;;;;17.84;53.29;100378.53;4941075;28;45340;-49
2022/06/08 05:00:06;;;;;;;;;3.00;2.00;;;;;17.80;53.34;100379.63;4942356;28;45289;-48
2022/06/08 05:05:35;;;;;;;;;4.00;3.00;;;;;17.67;53.46;100380.22;4907885;28;45289;-52
2022/06/08 05:08:03;;;;;;;;;2.00;2.00;;;;;17.60;53.44;100373.50;4930178;28;45299;-50
2022/06/08 05:10:30;;;;;;;;;1.50;1.50;;;;;17.56;53.67;100374.59;4942151;28;45817;-51
2022/06/08 05:12:56;;;;;;;;;4.50;2.25;;;;;17.50;53.61;100367.75;4942271;28;45461;-48
2022/06/08 05:15:30;;;;;;;;;4.25;2.75;;;;;17.42;53.90;100367.28;4933212;28;45516;-53
2022/06/08 05:17:57;;;;;;;;;2.00;2.00;;;;;17.38;54.12;100371.00;4935728;28;45848;-53
2022/06/08 05:20:24;;;;;;;;;4.00;2.00;;;;;17.32;53.90;100368.66;4939125;28;45528;-53
2022/06/08 05:22:50;;;;;;;;;3.75;3.50;;;;;17.24;54.07;100366.38;4938517;28;45370;-51
2022/06/08 05:25:24;;;;;;;;;4.25;3.00;;;;;17.20;54.21;100365.66;4937141;28;45404;-51
2022/06/08 05:27:49;;;;;;;;;4.25;3.00;;;;;17.15;54.12;100361.50;4938526;28;45433;-50
2022/06/08 05:30:15;;;;;;;;;2.50;2.00;;;;;17.11;54.62;100357.28;4935754;28;45512;-48
2022/06/08 05:32:41;;;;;;;;;4.25;3.25;;;;;17.06;54.77;100357.50;4937185;28;45437;-51
2022/06/08 05:35:07;;;;;;;;;3.50;3.50;;;;;17.01;54.47;100348.91;4938468;28;45376;-50
2022/06/08 05:37:33;;;;;;;;;5.00;3.50;;;;;16.95;54.53;100338.56;4938173;28;45378;-50
2022/06/08 05:39:58;;;;;;;;;3.75;3.00;;;;;16.93;54.53;100348.38;4937158;28;46837;-50
2022/06/08 05:42:24;;;;;;;;;2.25;1.50;;;;;16.91;55.00;100340.50;4938125;28;45319;-53
2022/06/08 05:44:49;;;;;;;;;5.50;3.50;;;;;16.87;55.09;100337.09;4937179;28;45438;-48
2022/06/08 05:47:16;;;;;;;;;4.50;2.75;;;;;16.83;54.59;100348.78;4940253;28;45536;-52
2022/06/08 05:49:42;;;;;;;;;3.00;3.00;;;;;16.83;54.89;100339.94;4939701;28;47168;-51
2022/06/08 05:52:07;;;;;;;;;7.00;4.00;;;;;16.82;54.98;100349.72;4940530;28;45794;-50
2022/06/08 05:54:33;;;;;;;;;5.50;4.00;;;;;16.81;55.32;100340.03;4941637;28;45849;-48
2022/06/08 05:56:59;;;;;;;;;5.00;3.00;;;;;16.79;55.21;100338.38;4941656;28;45168;-47
2022/06/08 05:59:25;;;;;;;;;3.75;3.75;;;;;16.80;55.26;100346.25;4941537;28;48511;-48
2022/06/08 06:01:51;;;;;;;;;3.50;3.25;;;;;16.81;55.26;100345.34;4941590;28;45346;-47
2022/06/08 06:04:17;;;;;;;;;4.00;4.00;;;;;16.80;55.32;100343.63;4941687;28;45512;-47
2022/06/08 06:06:46;;;;;;;;;5.25;4.00;;;;;16.78;55.49;100345.50;4940244;28;45192;-46
2022/06/08 06:09:13;;;;;;;;;5.00;4.25;;;;;16.79;55.66;100338.38;4941282;28;46408;-48
2022/06/08 06:11:39;;;;;;;;;4.25;3.75;;;;;16.77;55.49;100338.47;4941392;28;45318;-47
2022/06/08 06:14:05;;;;;;;;;3.00;3.00;;;;;16.75;55.81;100342.97;4941467;28;45171;-48
2022/06/08 06:16:31;;;;;;;;;5.50;5.50;;;;;16.73;55.78;100342.19;4941407;28;45441;-52
2022/06/08 06:18:56;;;;;;;;;4.00;4.00;;;;;16.76;55.70;100350.00;4941139;28;45930;-52
2022/06/08 06:21:25;;;;;;;;;2.00;2.00;;;;;16.72;55.96;100343.13;4940356;28;45964;-50
2022/06/08 06:23:55;;;;;;;;;4.00;3.75;;;;;16.76;56.05;100344.69;4941379;28;45525;-49
2022/06/08 06:26:20;;;;;;;;;5.50;4.25;;;;;16.74;56.20;100346.53;4941096;28;45482;-49
2022/06/08 06:28:47;;;;;;;;;4.25;2.25;;;;;16.77;56.45;100349.06;4940880;28;45180;-50
2022/06/08 06:31:24;;;;;;;;;4.25;4.00;;;;;16.78;56.26;100339.31;4933281;28;45248;-48
2022/06/08 06:33:50;;;;;;;;;3.00;3.00;;;;;16.77;56.33;100349.06;4941270;28;45398;-48
2022/06/08 06:36:15;;;;;;;;;4.00;2.75;;;;;16.74;56.22;100343.91;4941241;28;45514;-52
2022/06/08 06:38:41;;;;;;;;;3.25;3.00;;;;;16.69;56.30;100333.50;4940374;28;45357;-52
2022/06/08 06:41:06;;;;;;;;;6.00;4.00;;;;;16.69;56.70;100346.78;4940739;28;45410;-53
2022/06/08 06:43:32;;;;;;;;;4.00;2.75;;;;;16.67;56.71;100343.31;4940929;28;45808;-51
2022/06/08 06:45:57;;;;;;;;;3.00;1.50;;;;;16.68;56.34;100354.81;4941154;28;45412;-49
2022/06/08 06:48:24;;;;;;;;;3.00;3.00;;;;;16.66;56.95;100343.41;4940969;28;46116;-53
2022/06/08 06:50:50;;;;;;;;;3.50;3.50;;;;;16.61;56.09;100343.59;4941163;28;45283;-51
2022/06/08 06:53:15;;;;;;;;;3.00;2.25;;;;;16.60;57.28;100368.41;4941128;28;45483;-50
2022/06/08 06:55:40;;;;;;;;;2.75;2.75;;;;;16.57;56.93;100345.53;4941433;28;45423;-53
2022/06/08 06:58:06;;;;;;;;;4.00;2.75;;;;;16.57;56.92;100366.75;4944174;28;45287;-52
2022/06/08 07:00:33;;;;;;;;;1.25;1.25;;;;;16.53;57.17;100362.53;4946065;28;45286;-49
2022/06/08 07:02:58;;;;;;;;;6.25;5.50;;;;;16.50;57.33;100362.69;4944622;28;45387;-50
2022/06/08 07:05:26;;;;;;;;;4.00;3.75;;;;;16.48;57.73;100361.03;4943077;28;45382;-52
2022/06/08 07:07:52;;;;;;;;;2.75;1.00;;;;;16.46;57.41;100358.41;4944009;28;45379;-51
2022/06/08 07:10:18;;;;;;;;;1.75;1.75;;;;;16.44;57.14;100360.31;4944098;28;45270;-49
2022/06/08 07:12:43;;;;;;;;;4.75;4.00;;;;;16.42;57.48;100368.28;4944334;28;45338;-50
2022/06/08 07:15:13;;;;;;;;;2.50;0.50;;;;;16.41;57.53;100361.28;4944141;28;45427;-51
2022/06/08 07:17:39;;;;;;;;;4.00;3.00;;;;;16.37;57.89;100356.19;4943797;28;45518;-49
2022/06/08 07:20:05;;;;;;;;;2.00;2.00;;;;;16.37;58.03;100366.78;4943990;28;45323;-53
2022/06/08 07:22:30;;;;;;;;;2.00;2.00;;;;;16.35;57.74;100366.88;4944119;28;45436;-53
2022/06/08 07:24:56;;;;;;;;;2.50;2.50;;;;;16.31;58.12;100357.31;4944034;28;45299;-51
2022/06/08 07:27:22;;;;;;;;;2.00;2.00;;;;;16.30;57.82;100360.03;4943771;28;46103;-53
2022/06/08 07:29:48;;;;;;;;;4.75;3.75;;;;;16.28;58.10;100360.09;4944034;28;45339;-49
2022/06/08 07:32:14;;;;;;;;;1.75;1.25;;;;;16.28;58.08;100361.91;4952252;28;45236;-54
2022/06/08 07:34:40;;;;;;;;;3.00;2.50;;;;;16.27;57.78;100365.47;4943444;28;45507;-52
2022/06/08 07:37:05;;;;;;;;;2.25;2.25;;;;;16.24;58.21;100356.72;4943554;28;45401;-53
2022/06/08 07:39:31;;;;;;;;;2.00;2.00;;;;;16.25;58.27;100363.75;4949524;28;45365;-52
2022/06/08 07:41:56;;;;;;;;;3.00;3.00;;;;;16.27;57.75;100360.19;4945479;28;45252;-54
2022/06/08 07:44:22;;;;;;;;;1.75;1.75;;;;;16.27;58.25;100371.63;4942507;28;45383;-50
2022/06/08 07:46:48;;;;;;;;;3.25;2.00;;;;;16.27;58.38;100363.69;4942187;28;46043;-53
2022/06/08 07:52:06;;;;;;;;;1.25;1.25;;;;;16.31;58.54;100359.09;4932403;28;45347;-51
2022/06/08 07:54:32;;;;;;;;;3.25;2.00;;;;;16.34;58.67;100366.91;4942070;28;45201;-53
2022/06/08 07:56:59;;;;;;;;;2.75;2.25;;;;;16.36;58.41;100365.94;4943501;28;45219;-53
2022/06/08 07:59:29;;;;;;;;;4.25;4.00;;;;;16.40;58.42;100361.34;4926190;28;45286;-54
2022/06/08 08:01:54;;;;;;;;;4.75;4.00;;;;;16.39;58.44;100363.16;4943546;28;45188;-51
2022/06/08 08:04:20;;;;;;;;;3.00;3.00;;;;;16.42;58.52;100367.44;4943373;28;45250;-54
2022/06/08 08:06:45;;;;;;;;;2.75;2.00;;;;;16.44;58.42;100362.06;4943084;28;45343;-53
2022/06/08 08:09:15;;;;;;;;;3.00;2.00;;;;;16.43;58.39;100353.25;4943230;28;45204;-52
2022/06/08 08:11:41;;;;;;;;;1.75;1.75;;;;;16.45;58.88;100353.19;4943531;28;45424;-51
2022/06/08 08:14:06;;;;;;;;;2.25;1.50;;;;;16.44;58.67;100349.69;4943187;28;45489;-53
2022/06/08 08:16:32;;;;;;;;;1.00;1.00;;;;;16.50;58.52;100344.13;4941849;28;46332;-49
2022/06/08 08:18:58;;;;;;;;;3.75;2.00;;;;;16.54;58.62;100353.66;4943201;28;45336;-53
2022/06/08 08:21:24;;;;;;;;;1.50;1.50;;;;;16.50;58.99;100332.63;4942097;28;45168;-51
2022/06/08 08:23:50;;;;;;;;;3.50;3.00;;;;;16.60;59.06;100333.91;4943431;28;45461;-52
2022/06/08 08:26:16;;;;;;;;;3.75;2.50;;;;;16.70;59.00;100343.19;4942915;28;46095;-53
2022/06/08 08:28:41;;;;;;;;;1.25;1.25;;;;;16.76;59.04;100334.09;4943020;28;45220;-51
2022/06/08 08:31:07;;;;;;;;;2.25;2.00;;;;;16.81;58.92;100323.25;4943099;28;45548;-51
2022/06/08 08:33:32;;;;;;;;;2.00;2.00;;;;;16.92;59.00;100325.44;4943380;28;45234;-50
2022/06/08 08:35:57;;;;;;;;;5.50;2.00;;;;;17.00;59.27;100331.25;4941682;28;47913;-53
2022/06/08 08:38:23;;;;;;;;;3.00;2.00;;;;;17.03;59.31;100331.97;4943017;28;45370;-53
2022/06/08 08:40:54;;;;;;;;;2.50;2.50;;;;;17.09;59.44;100329.94;4942625;28;45406;-53
2022/06/08 08:43:22;;;;;;;;;2.00;2.00;;;;;17.15;59.45;100321.69;4941723;28;45233;-53
2022/06/08 08:46:18;;;;;;;;;2.50;2.00;;;;;17.22;59.16;100326.63;4942610;28;46049;-52
2022/06/08 08:48:57;;;;;;;;;2.75;2.75;;;;;17.27;59.17;100331.72;4942641;28;45318;-48
2022/06/08 08:51:25;;;;;;;;;2.00;2.00;;;;;17.30;59.69;100347.50;4942934;28;45470;-51
2022/06/08 08:53:56;;;;;;;;;1.75;1.75;;;;;17.37;59.26;100356.00;4942613;28;45443;-48
2022/06/08 08:56:30;;;;;;;;;3.00;2.00;;;;;17.39;59.44;100356.81;4942458;28;45549;-51
2022/06/08 08:58:56;;;;;;;;;0.00;0.00;;;;;17.44;59.51;100352.13;4941450;28;45749;-52
2022/06/08 09:01:31;;;;;;;;;1.75;1.00;;;;;17.47;59.32;100359.97;4942643;28;45333;-51
2022/06/08 09:04:05;;;;;;;;;0.50;0.50;;;;;17.49;59.47;100347.44;4942656;28;45452;-49
2022/06/08 09:06:33;;;;;;;;;1.00;1.00;;;;;17.54;59.38;100356.03;4942441;28;46234;-51
2022/06/08 09:09:00;;;;;;;;;0.00;0.00;;;;;17.58;59.49;100355.91;4941306;28;45472;-52
2022/06/08 09:11:44;;;;;;;;;1.00;1.00;;;;;17.62;59.28;100360.13;4942347;28;45292;-53
2022/06/08 09:14:19;;;;;;;;;0.00;0.00;;;;;17.65;59.43;100357.34;4942445;28;45232;-51
2022/06/08 09:16:49;;;;;;;;;1.75;1.00;;;;;17.61;59.55;100356.63;4942034;28;46064;-51
2022/06/08 09:19:21;;;;;;;;;1.00;1.00;;;;;17.62;59.70;100362.78;4941699;28;45374;-53
2022/06/08 09:21:59;;;;;;;;;2.00;1.00;;;;;17.63;59.49;100364.50;4942489;28;45320;-50
2022/06/08 09:24:30;;;;;;;;;1.00;1.00;;;;;17.62;59.60;100355.69;4942073;28;45339;-53
2022/06/08 09:27:07;;;;;;;;;3.00;3.00;;;;;17.66;59.49;100356.38;4942178;28;45281;-51
2022/06/08 09:29:48;;;;;;;;;2.00;1.00;;;;;17.69;59.58;100358.88;4942294;28;45254;-51
2022/06/08 09:32:28;;;;;;;;;3.00;3.00;;;;;17.71;59.90;100354.38;4942067;28;45437;-50
2022/06/08 09:34:57;;;;;;;;;2.00;2.00;;;;;17.74;59.86;100364.84;4942360;28;45500;-51
2022/06/08 09:37:26;;;;;;;;;2.00;2.00;;;;;17.81;59.75;100352.09;4941854;28;45458;-51
2022/06/08 09:39:54;;;;;;;;;2.00;2.00;;;;;17.85;59.90;100349.19;4941818;28;45249;-53
2022/06/08 09:42:29;;;;;;;;;2.50;2.00;;;;;17.93;59.62;100355.94;4941709;28;45307;-51
2022/06/08 09:45:22;;;;;;;;;4.00;3.25;;;;;17.98;59.96;100357.44;4941976;28;45304;-51
2022/06/08 09:54:06;;;;;;;;;2.25;1.75;;;;;18.26;59.79;100357.81;4941941;28;45220;-50
2022/06/08 09:56:47;;;;;;;;;2.75;2.75;;;;;18.37;59.55;100347.47;4941883;28;45224;-52
2022/06/08 09:59:25;;;;;;;;;1.00;1.00;;;;;18.52;59.72;100353.78;4941819;28;46168;-50
2022/06/08 10:01:59;;;;;;;;;2.00;2.00;;;;;18.61;59.79;100355.94;4941649;28;45343;-48
2022/06/08 10:04:43;;;;;;;;;1.75;1.00;;;;;18.74;59.91;100344.63;4941913;28;45389;-50
2022/06/08 10:07:08;;;;;;;;;0.75;0.75;;;;;18.88;59.28;100343.88;4941743;28;45271;-51
2022/06/08 10:10:23;;;;;;;;;1.00;1.00;;;;;18.92;59.24;100335.66;4941431;28;45784;-52
2022/06/08 10:13:10;;;;;;;;;2.00;2.00;;;;;19.08;59.26;100342.78;4926105;28;45607;-50
2022/06/08 10:15:45;;;;;;;;;2.00;1.00;;;;;19.16;58.98;100332.56;4930160;28;45277;-51
2022/06/08 10:18:10;;;;;;;;;2.50;2.50;;;;;19.24;58.49;100330.31;4941553;28;45415;-49
2022/06/08 10:20:38;;;;;;;;;2.00;2.00;;;;;19.35;59.21;100316.38;4941425;28;46190;-52
2022/06/08 10:23:14;;;;;;;;;1.00;0.25;;;;;19.49;58.34;100331.56;4941400;28;45352;-51
2022/06/08 10:26:01;;;;;;;;;1.50;1.50;;;;;19.61;58.58;100306.88;4940063;28;45434;-51
2022/06/08 10:28:49;;;;;;;;;2.00;2.00;;;;;19.81;57.64;100311.03;4941560;28;45318;-52
2022/06/08 10:31:25;;;;;;;;;2.00;2.00;;;;;19.92;57.97;100309.56;4943629;28;45842;-49
2022/06/08 10:34:01;;;;;;;;;1.00;1.00;;;;;20.11;58.25;100314.63;4959701;28;45451;-50
2022/06/08 10:36:31;;;;;;;;;1.25;1.25;;;;;20.27;58.10;100317.22;4945054;28;45237;-51
2022/06/08 10:39:00;;;;;;;;;1.00;1.00;;;;;20.44;57.54;100318.84;4944540;28;45456;-51
2022/06/08 10:44:35;;;;;;;;;1.00;1.00;;;;;20.89;57.58;100300.91;4944516;28;45420;-51
2022/06/08 10:47:13;;;;;;;;;1.75;1.75;;;;;21.01;57.18;100298.41;4944395;28;45268;-50
2022/06/08 10:49:38;;;;;;;;;1.00;1.00;;;;;21.07;57.09;100309.53;4943207;28;45244;-50
2022/06/08 10:52:13;;;;;;;;;1.00;1.00;;;;;21.17;56.58;100303.56;4944169;28;45263;-50
2022/06/08 10:54:54;;;;;;;;;1.00;1.00;;;;;21.28;55.83;100298.38;4944353;28;45336;-50
2022/06/08 10:57:37;;;;;;;;;2.00;1.75;;;;;21.35;55.66;100309.53;4944527;28;45295;-48
2022/06/08 11:00:18;;;;;;;;;1.00;1.00;;;;;21.38;55.28;100320.88;4944131;28;45400;-50
2022/06/08 11:02:49;;;;;;;;;2.00;2.00;;;;;21.40;55.23;100329.63;4944108;28;45331;-47
2022/06/08 11:05:18;;;;;;;;;1.00;1.00;;;;;21.42;55.36;100345.56;4943082;28;45374;-48
2022/06/08 11:08:16;;;;;;;;;1.00;0.00;;;;;21.30;55.37;100351.75;4943094;28;45370;-48
2022/06/08 11:10:44;;;;;;;;;2.00;1.00;;;;;21.17;55.19;100340.97;4944140;28;45392;-51
2022/06/08 11:13:18;;;;;;;;;1.50;1.50;;;;;21.03;55.74;100361.44;4943851;28;45307;-50
2022/06/08 11:16:17;;;;;;;;;3.25;2.00;;;;;20.86;55.45;100349.16;4943944;28;45232;-52
2022/06/08 11:19:13;;;;;;;;;3.25;2.00;;;;;20.73;55.92;100343.75;4940797;28;45329;-49
2022/06/08 11:22:20;;;;;;;;;1.25;1.25;;;;;20.65;55.92;100343.31;4939736;28;45244;-50
2022/06/08 11:24:51;;;;;;;;;2.00;2.00;;;;;20.64;55.75;100330.94;4923910;28;46225;-49
2022/06/08 11:27:20;;;;;;;;;2.00;2.00;;;;;20.66;55.72;100336.19;4944057;28;45350;-47
2022/06/08 11:29:55;;;;;;;;;5.75;5.00;;;;;20.73;55.83;100338.41;4944020;28;45309;-51
2022/06/08 11:33:01;;;;;;;;;5.50;4.00;;;;;20.89;55.92;100338.28;4943622;28;45245;-49
2022/06/08 11:35:46;;;;;;;;;6.25;4.75;;;;;21.03;56.19;100342.75;4943618;28;45276;-51
2022/06/08 11:38:25;;;;;;;;;5.00;5.00;;;;;21.19;56.81;100331.06;4943646;28;45234;-50
2022/06/08 11:41:19;;;;;;;;;5.25;4.00;;;;;21.34;56.19;100327.38;4943334;28;45268;-50
2022/06/08 11:43:47;;;;;;;;;3.50;3.00;;;;;21.43;56.73;100332.13;4943656;28;45320;-50
2022/06/08 11:46:39;;;;;;;;;6.00;5.00;;;;;21.50;56.67;100340.59;4943436;28;47099;-51
2022/06/08 11:49:07;;;;;;;;;3.50;3.00;;;;;21.54;55.94;100336.75;4943479;28;45359;-49
2022/06/08 11:51:39;;;;;;;;;3.00;3.00;;;;;21.61;56.24;100331.00;4943612;28;45363;-48
2022/06/08 11:54:31;;;;;;;;;3.25;3.25;;;;;21.72;56.26;100328.47;4943270;28;45562;-49
2022/06/08 11:57:18;;;;;;;;;5.00;3.25;;;;;21.85;55.91;100328.53;4943311;28;45272;-47
2022/06/08 11:59:45;;;;;;;;;5.00;3.25;;;;;22.04;55.82;100326.28;4942137;28;45809;-50